Time;durP1;ratioP1;P1;durP2;ratioP2;P2;SDS_P1;SDS_P2;PMS_P1;PMS_P2;Temp;Humidity;BMP_temperature;BMP_pressure;BME280_temperature;BME280_humidity;BME280_pressure;Samples;Min_cycle;Max_cycle;Signal;HPM_P1;HPM_P2
2023/01/07 00:01:16;;;;;;;4.82;3.97;;;15.50;99.00;;;;;;5065006;28;20036;-70
2023/01/07 00:03:43;;;;;;;6.15;3.30;;;15.40;98.90;;;;;;5066612;28;20037;-69
2023/01/07 00:06:13;;;;;;;6.78;3.95;;;15.30;98.90;;;;;;5072467;28;20090;-67
2023/01/07 00:08:41;;;;;;;4.68;3.35;;;15.30;98.80;;;;;;5072652;28;20078;-66
2023/01/07 00:11:15;;;;;;;5.18;2.78;;;15.20;98.80;;;;;;5072189;28;20098;-69
2023/01/07 00:13:41;;;;;;;5.50;3.25;;;15.40;98.90;;;;;;5072219;28;20029;-70
2023/01/07 00:16:10;;;;;;;5.90;4.20;;;15.30;98.50;;;;;;5071183;28;20033;-71
2023/01/07 00:18:36;;;;;;;5.38;4.07;;;15.30;98.60;;;;;;5070882;28;20024;-69
2023/01/07 00:21:04;;;;;;;5.07;3.38;;;15.30;98.40;;;;;;5072976;28;20097;-67
2023/01/07 00:23:31;;;;;;;4.72;3.83;;;15.30;98.30;;;;;;5072961;28;20477;-69
2023/01/07 00:26:10;;;;;;;6.97;3.58;;;15.30;98.40;;;;;;5073326;28;20037;-69
2023/01/07 00:28:38;;;;;;;6.25;3.67;;;15.20;98.30;;;;;;5073445;28;20103;-68
2023/01/07 00:31:09;;;;;;;4.95;3.35;;;15.30;98.20;;;;;;5072042;28;20036;-66
2023/01/07 00:33:35;;;;;;;6.27;3.77;;;15.20;98.30;;;;;;5072513;28;20028;-68
2023/01/07 00:36:08;;;;;;;7.82;2.97;;;15.30;98.20;;;;;;5072752;28;20039;-67
2023/01/07 00:38:35;;;;;;;5.15;3.13;;;15.20;98.30;;;;;;5072475;28;20021;-68
2023/01/07 00:41:02;;;;;;;7.40;3.45;;;15.30;98.20;;;;;;5072672;28;20082;-64
2023/01/07 00:43:27;;;;;;;6.25;3.35;;;15.20;98.00;;;;;;5072371;28;20052;-69
2023/01/07 00:45:53;;;;;;;3.92;3.10;;;15.30;98.00;;;;;;5072601;28;20474;-66
2023/01/07 00:48:20;;;;;;;5.13;3.50;;;15.20;98.10;;;;;;5073135;28;20036;-68
2023/01/07 00:50:47;;;;;;;5.72;3.33;;;15.30;97.90;;;;;;5072890;28;20025;-69
2023/01/07 00:53:13;;;;;;;5.40;3.10;;;15.40;97.80;;;;;;5072866;28;20032;-67
2023/01/07 00:55:38;;;;;;;4.75;3.08;;;15.30;97.80;;;;;;5073151;28;20108;-69
2023/01/07 00:58:04;;;;;;;4.22;3.08;;;15.30;97.80;;;;;;5072747;28;20469;-69
2023/01/07 01:00:31;;;;;;;6.43;3.15;;;15.30;97.80;;;;;;5072635;28;20070;-70
2023/01/07 01:02:56;;;;;;;4.38;3.13;;;15.10;97.90;;;;;;5071732;28;20040;-67
2023/01/07 01:05:22;;;;;;;4.40;2.90;;;15.10;97.90;;;;;;5072837;28;20512;-68
2023/01/07 01:07:48;;;;;;;5.00;2.85;;;15.30;97.80;;;;;;5072868;28;20086;-68
2023/01/07 01:10:17;;;;;;;5.82;2.83;;;15.10;97.80;;;;;;5072810;28;20023;-66
2023/01/07 01:12:43;;;;;;;4.03;3.30;;;15.00;97.90;;;;;;5071550;28;20397;-66
2023/01/07 01:15:13;;;;;;;4.57;3.22;;;15.10;97.90;;;;;;5071272;28;20025;-65
2023/01/07 01:17:39;;;;;;;3.65;2.67;;;15.10;97.90;;;;;;5072899;28;20024;-66
2023/01/07 01:20:06;;;;;;;5.50;3.13;;;15.10;97.80;;;;;;5072369;28;20168;-66
2023/01/07 01:22:32;;;;;;;4.07;3.15;;;15.10;97.90;;;;;;5072582;28;20107;-64
2023/01/07 01:24:57;;;;;;;6.78;3.78;;;15.10;97.90;;;;;;5072480;28;20278;-65
2023/01/07 01:27:23;;;;;;;5.32;3.33;;;15.20;97.90;;;;;;5072419;28;20021;-65
2023/01/07 01:29:48;;;;;;;5.43;2.70;;;15.20;97.90;;;;;;5072100;28;20020;-65
2023/01/07 01:32:14;;;;;;;6.85;3.08;;;15.10;97.80;;;;;;5071140;28;20501;-65
2023/01/07 01:34:39;;;;;;;6.55;3.03;;;15.10;97.80;;;;;;5072472;28;20032;-66
2023/01/07 01:37:05;;;;;;;5.13;2.42;;;15.10;98.00;;;;;;5072371;28;20025;-65
2023/01/07 01:39:31;;;;;;;6.47;3.13;;;15.10;97.90;;;;;;5072474;28;20090;-65
2023/01/07 01:41:56;;;;;;;4.03;3.20;;;15.20;97.80;;;;;;5072263;28;20028;-65
2023/01/07 01:44:44;;;;;;;6.47;3.17;;;15.10;98.00;;;;;;5072167;28;20036;-66
2023/01/07 01:47:22;;;;;;;4.90;2.80;;;15.10;98.00;;;;;;5072468;28;20025;-65
2023/01/07 01:50:01;;;;;;;5.75;3.00;;;15.10;97.90;;;;;;5072427;28;20032;-64
2023/01/07 01:52:40;;;;;;;5.72;3.30;;;15.20;97.90;;;;;;5072550;28;20031;-64
2023/01/07 01:55:08;;;;;;;4.53;2.80;;;15.00;97.90;;;;;;5072001;28;20030;-65
2023/01/07 01:57:35;;;;;;;6.30;2.88;;;15.10;98.20;;;;;;5072040;28;20028;-66
2023/01/07 02:00:03;;;;;;;6.80;2.75;;;15.00;98.10;;;;;;5072214;28;20029;-65
2023/01/07 02:02:37;;;;;;;6.05;3.22;;;15.00;98.10;;;;;;5072271;28;20021;-65
2023/01/07 02:05:04;;;;;;;7.45;3.47;;;15.10;98.10;;;;;;5072461;28;20059;-65
2023/01/07 02:07:29;;;;;;;4.07;3.25;;;15.10;98.00;;;;;;5070985;28;20121;-65
2023/01/07 02:10:01;;;;;;;6.28;3.28;;;15.00;98.00;;;;;;5072065;28;20523;-65
2023/01/07 02:12:54;;;;;;;5.50;3.57;;;14.90;98.30;;;;;;5071732;28;20423;-64
2023/01/07 02:15:35;;;;;;;6.80;3.45;;;14.90;98.30;;;;;;5072019;28;20029;-65
2023/01/07 02:18:18;;;;;;;5.10;3.40;;;15.00;98.40;;;;;;5072266;28;20386;-66
2023/01/07 02:21:16;;;;;;;5.53;3.50;;;15.00;98.30;;;;;;5071849;28;20390;-65
2023/01/07 02:23:51;;;;;;;6.70;3.67;;;15.10;98.30;;;;;;5071900;28;20028;-65
2023/01/07 02:26:31;;;;;;;6.32;3.67;;;15.10;98.30;;;;;;5071541;28;20037;-65
2023/01/07 02:29:26;;;;;;;9.23;3.75;;;14.90;98.40;;;;;;5071836;28;20024;-65
2023/01/07 02:32:15;;;;;;;6.25;3.90;;;15.00;98.60;;;;;;5071851;28;20127;-66
2023/01/07 02:35:04;;;;;;;7.25;3.40;;;15.00;98.50;;;;;;5071332;28;20488;-68
2023/01/07 02:37:43;;;;;;;5.07;3.60;;;15.10;98.40;;;;;;5070482;28;20029;-66
2023/01/07 02:40:18;;;;;;;4.50;3.47;;;14.90;98.50;;;;;;5071627;28;20070;-66
2023/01/07 02:43:36;;;;;;;6.63;3.83;;;14.90;98.40;;;;;;5075189;28;20040;-66
2023/01/07 02:46:05;;;;;;;7.93;3.55;;;14.90;98.40;;;;;;5063084;28;20041;-69
2023/01/07 02:48:32;;;;;;;4.82;3.75;;;15.00;98.20;;;;;;5075528;28;20029;-66
2023/01/07 02:50:58;;;;;;;7.53;3.88;;;15.00;98.30;;;;;;5075280;28;20017;-68
2023/01/07 02:53:23;;;;;;;6.72;3.70;;;14.90;98.30;;;;;;5074969;28;20489;-69
2023/01/07 02:56:13;;;;;;;6.85;3.90;;;14.90;98.30;;;;;;5074867;28;20465;-70
2023/01/07 02:59:02;;;;;;;6.47;4.82;;;14.80;98.50;;;;;;5075226;28;20032;-69
2023/01/07 03:02:02;;;;;;;7.47;5.05;;;14.90;98.40;;;;;;5075103;28;20070;-65
2023/01/07 03:04:59;;;;;;;6.18;5.40;;;14.90;98.20;;;;;;5071576;28;20119;-66
2023/01/07 03:07:54;;;;;;;7.72;5.00;;;14.90;98.20;;;;;;5075016;28;20029;-65
2023/01/07 03:10:41;;;;;;;6.72;4.32;;;14.90;98.20;;;;;;5056120;28;20041;-66
2023/01/07 03:13:15;;;;;;;7.47;3.75;;;15.00;98.10;;;;;;5074866;28;20025;-65
2023/01/07 03:15:50;;;;;;;6.88;4.45;;;15.00;98.10;;;;;;5074909;28;20047;-65
2023/01/07 03:18:27;;;;;;;7.55;4.43;;;14.90;98.00;;;;;;5074719;28;20020;-66
2023/01/07 03:20:57;;;;;;;4.22;3.45;;;14.80;98.10;;;;;;5074562;28;20035;-65
2023/01/07 03:23:26;;;;;;;5.63;4.20;;;14.90;98.20;;;;;;5074661;28;20029;-65
2023/01/07 03:25:53;;;;;;;5.78;3.83;;;14.90;98.10;;;;;;5074657;28;20036;-65
2023/01/07 03:28:24;;;;;;;5.93;3.50;;;14.90;98.00;;;;;;5074762;28;20103;-64
2023/01/07 03:30:53;;;;;;;4.80;3.58;;;14.90;98.00;;;;;;5074613;28;20020;-65
2023/01/07 03:33:29;;;;;;;5.68;3.60;;;14.80;98.10;;;;;;5074862;28;20028;-65
2023/01/07 03:35:57;;;;;;;7.32;3.53;;;14.70;98.00;;;;;;5074530;28;20078;-66
2023/01/07 03:38:24;;;;;;;5.50;3.60;;;14.80;98.10;;;;;;5073916;28;20086;-64
2023/01/07 03:40:51;;;;;;;5.38;3.22;;;14.90;98.00;;;;;;5074421;28;20067;-65
2023/01/07 03:43:18;;;;;;;4.22;2.70;;;14.80;98.00;;;;;;5074243;28;20492;-65
2023/01/07 03:45:46;;;;;;;6.85;3.22;;;14.80;98.10;;;;;;5074257;28;20048;-65
2023/01/07 03:48:11;;;;;;;4.30;3.17;;;14.80;98.00;;;;;;5074236;28;20373;-65
2023/01/07 03:50:37;;;;;;;4.90;3.00;;;14.80;98.00;;;;;;5074383;28;20477;-66
2023/01/07 03:53:03;;;;;;;5.70;3.35;;;14.80;98.20;;;;;;5073492;28;20032;-64
2023/01/07 03:55:29;;;;;;;3.22;2.50;;;14.80;97.90;;;;;;5074070;28;20595;-64
2023/01/07 03:57:55;;;;;;;3.70;2.72;;;14.80;97.80;;;;;;5072809;28;20046;-65
2023/01/07 04:00:21;;;;;;;6.00;2.88;;;14.90;97.80;;;;;;5073915;28;20025;-64
2023/01/07 04:02:46;;;;;;;3.65;2.60;;;14.90;97.80;;;;;;5073760;28;20373;-68
2023/01/07 04:05:12;;;;;;;3.45;2.72;;;14.80;97.80;;;;;;5073882;28;20036;-64
2023/01/07 04:07:38;;;;;;;6.75;2.80;;;14.80;97.80;;;;;;5073598;28;20027;-66
2023/01/07 04:10:05;;;;;;;4.50;2.50;;;14.80;97.90;;;;;;5074036;28;20032;-64
2023/01/07 04:12:31;;;;;;;4.68;2.55;;;14.80;97.90;;;;;;5074255;28;20044;-65
2023/01/07 04:14:57;;;;;;;4.57;2.70;;;14.80;97.90;;;;;;5073455;28;20129;-65
2023/01/07 04:17:22;;;;;;;3.72;2.92;;;14.80;97.80;;;;;;5073683;28;20024;-65
2023/01/07 04:19:48;;;;;;;5.47;2.67;;;14.80;97.90;;;;;;5073548;28;20029;-67
2023/01/07 04:22:13;;;;;;;4.75;2.80;;;14.80;97.80;;;;;;5073319;28;20056;-65
2023/01/07 04:24:39;;;;;;;3.35;2.60;;;14.80;97.90;;;;;;5073361;28;20378;-68
2023/01/07 04:27:04;;;;;;;3.88;2.28;;;14.80;97.80;;;;;;5073512;28;20470;-65
2023/01/07 04:29:30;;;;;;;4.65;2.40;;;14.90;97.80;;;;;;5073252;28;20025;-64
2023/01/07 04:31:56;;;;;;;3.70;2.35;;;14.80;97.80;;;;;;5073360;28;20082;-64
2023/01/07 04:34:22;;;;;;;3.42;2.13;;;14.80;97.80;;;;;;5073280;28;20013;-64
2023/01/07 04:36:48;;;;;;;4.35;2.17;;;14.90;97.70;;;;;;5072949;28;20386;-64
2023/01/07 04:39:13;;;;;;;3.10;1.63;;;14.90;97.70;;;;;;5067621;28;20048;-65
2023/01/07 04:41:39;;;;;;;3.42;2.03;;;14.90;97.70;;;;;;5071745;28;20042;-64
2023/01/07 04:44:04;;;;;;;3.05;1.63;;;14.70;97.70;;;;;;5072727;28;20036;-65
2023/01/07 04:46:30;;;;;;;5.95;2.25;;;14.80;97.60;;;;;;5072838;28;20016;-64
2023/01/07 04:48:56;;;;;;;2.10;1.80;;;14.80;97.50;;;;;;5060233;28;20385;-66
2023/01/07 04:51:21;;;;;;;4.22;2.10;;;14.80;97.60;;;;;;5055640;28;20386;-65
2023/01/07 04:53:47;;;;;;;2.30;1.50;;;14.80;97.50;;;;;;5050721;28;20476;-65
2023/01/07 04:56:13;;;;;;;2.45;1.70;;;14.80;97.40;;;;;;5051605;28;20047;-65
2023/01/07 04:58:38;;;;;;;4.20;1.60;;;14.80;97.50;;;;;;5052767;28;20474;-64
2023/01/07 05:01:04;;;;;;;5.78;2.13;;;14.80;97.50;;;;;;5052754;28;20045;-65
2023/01/07 05:03:30;;;;;;;2.25;1.20;;;14.80;97.30;;;;;;5052206;28;20021;-63
2023/01/07 05:05:56;;;;;;;3.83;1.67;;;14.80;97.30;;;;;;5052394;28;20029;-65
2023/01/07 05:08:21;;;;;;;3.28;1.63;;;14.80;97.20;;;;;;5052900;28;20021;-65
2023/01/07 05:10:50;;;;;;;2.13;1.38;;;14.80;97.10;;;;;;5052705;28;20021;-64
2023/01/07 05:13:17;;;;;;;3.60;1.63;;;14.70;97.00;;;;;;5052770;28;20028;-65
2023/01/07 05:15:43;;;;;;;4.22;1.85;;;14.80;97.00;;;;;;5052580;28;20051;-65
2023/01/07 05:18:08;;;;;;;2.25;1.45;;;14.80;96.80;;;;;;5052926;28;20478;-64
2023/01/07 05:20:34;;;;;;;4.80;1.60;;;14.80;96.80;;;;;;5051987;28;20106;-67
2023/01/07 05:22:59;;;;;;;3.60;1.50;;;14.80;96.80;;;;;;5052468;28;20013;-64
2023/01/07 05:25:25;;;;;;;3.10;1.63;;;14.60;96.80;;;;;;5052455;28;20432;-66
2023/01/07 05:27:50;;;;;;;2.25;1.42;;;14.60;96.70;;;;;;5052662;28;20025;-67
2023/01/07 05:30:16;;;;;;;2.90;1.70;;;14.60;96.80;;;;;;5052438;28;20036;-64
2023/01/07 05:32:42;;;;;;;2.85;1.58;;;14.60;96.80;;;;;;5052406;28;20029;-67
2023/01/07 05:35:07;;;;;;;3.53;1.70;;;14.70;96.70;;;;;;5052023;28;20492;-66
2023/01/07 05:37:33;;;;;;;3.95;1.52;;;14.70;96.40;;;;;;5052398;28;20032;-66
2023/01/07 05:39:59;;;;;;;3.33;1.67;;;14.70;96.30;;;;;;5052272;28;20497;-66
2023/01/07 05:42:24;;;;;;;3.85;2.17;;;14.70;96.30;;;;;;5052400;28;20117;-66
2023/01/07 05:44:50;;;;;;;4.57;2.25;;;14.80;96.20;;;;;;5052211;28;20029;-66
2023/01/07 05:47:15;;;;;;;6.38;2.53;;;14.80;96.10;;;;;;5052384;28;20014;-67
2023/01/07 05:49:41;;;;;;;5.32;2.50;;;14.70;96.00;;;;;;5052161;28;20405;-66
2023/01/07 05:52:06;;;;;;;5.32;2.28;;;14.70;95.90;;;;;;5051029;28;20532;-66
2023/01/07 05:54:32;;;;;;;5.03;2.25;;;14.80;95.90;;;;;;5052047;28;20029;-67
2023/01/07 05:56:57;;;;;;;4.45;2.67;;;14.70;95.90;;;;;;5052281;28;20048;-65
2023/01/07 05:59:23;;;;;;;4.72;2.70;;;14.70;96.00;;;;;;5052250;28;20482;-66
2023/01/07 06:01:48;;;;;;;4.78;2.50;;;14.70;95.90;;;;;;5058326;28;20367;-66
2023/01/07 06:04:14;;;;;;;4.80;2.80;;;14.70;95.70;;;;;;5071723;28;20396;-67
2023/01/07 06:06:39;;;;;;;6.10;2.88;;;14.80;95.70;;;;;;5069999;28;20351;-66
2023/01/07 06:09:05;;;;;;;4.45;2.30;;;14.70;95.60;;;;;;5071396;28;20090;-66
2023/01/07 06:11:31;;;;;;;6.30;2.78;;;14.70;95.60;;;;;;5071237;28;20226;-66
2023/01/07 06:13:57;;;;;;;4.13;2.47;;;14.70;95.50;;;;;;5072229;28;20119;-66
2023/01/07 06:16:22;;;;;;;5.25;2.70;;;14.70;95.50;;;;;;5075327;28;20032;-67
2023/01/07 06:18:48;;;;;;;7.38;3.40;;;14.70;95.50;;;;;;5075464;28;20021;-67
2023/01/07 06:21:15;;;;;;;5.50;2.85;;;14.60;95.50;;;;;;5075870;28;20033;-66
2023/01/07 06:23:40;;;;;;;5.47;2.72;;;14.60;95.50;;;;;;5075779;28;20028;-67
2023/01/07 06:26:06;;;;;;;6.82;3.40;;;14.60;95.70;;;;;;5075553;28;20577;-69
2023/01/07 06:28:31;;;;;;;5.35;2.88;;;14.60;95.30;;;;;;5076074;28;20033;-67
2023/01/07 06:30:57;;;;;;;4.90;2.20;;;14.60;95.40;;;;;;5074313;28;20032;-68
2023/01/07 06:33:23;;;;;;;4.70;2.38;;;14.60;95.30;;;;;;5075424;28;20036;-69
2023/01/07 06:35:48;;;;;;;5.68;2.63;;;14.60;95.20;;;;;;5075370;28;20107;-67
2023/01/07 06:38:14;;;;;;;4.05;2.03;;;14.50;95.30;;;;;;5075623;28;20055;-68
2023/01/07 06:40:39;;;;;;;3.65;2.20;;;14.60;95.20;;;;;;5075274;28;20047;-69
2023/01/07 06:43:05;;;;;;;6.20;3.25;;;14.60;95.30;;;;;;5075628;28;20377;-67
2023/01/07 06:45:30;;;;;;;5.68;2.50;;;14.60;95.30;;;;;;5075390;28;20059;-66
2023/01/07 06:47:57;;;;;;;3.78;2.35;;;14.50;95.30;;;;;;5075006;28;20047;-67
2023/01/07 06:50:23;;;;;;;4.25;2.30;;;14.50;95.30;;;;;;5075667;28;20069;-67
2023/01/07 06:52:49;;;;;;;4.55;1.92;;;14.60;95.20;;;;;;5067426;28;20423;-66
2023/01/07 06:55:14;;;;;;;3.85;2.25;;;14.60;95.20;;;;;;5068701;28;20020;-67
2023/01/07 06:57:40;;;;;;;4.13;1.92;;;14.60;95.20;;;;;;5071290;28;20117;-67
2023/01/07 07:00:06;;;;;;;2.97;1.42;;;14.60;95.10;;;;;;5074960;28;20040;-66
2023/01/07 07:02:31;;;;;;;4.38;1.55;;;14.50;95.20;;;;;;5074631;28;20488;-67
2023/01/07 07:04:57;;;;;;;3.45;1.50;;;14.60;95.00;;;;;;5071647;28;20025;-69
2023/01/07 07:07:23;;;;;;;3.83;1.27;;;14.60;95.00;;;;;;5071611;28;20044;-66
2023/01/07 07:09:49;;;;;;;3.88;1.48;;;14.50;95.00;;;;;;5067533;28;20020;-67
2023/01/07 07:12:15;;;;;;;2.22;0.80;;;14.60;95.30;;;;;;5067853;28;20143;-66
2023/01/07 07:14:41;;;;;;;1.98;0.80;;;14.60;95.00;;;;;;5063538;28;20044;-66
2023/01/07 07:17:07;;;;;;;1.45;0.82;;;14.60;94.90;;;;;;5064678;28;20477;-67
2023/01/07 07:19:32;;;;;;;3.10;1.02;;;14.60;94.90;;;;;;5070763;28;20416;-66
2023/01/07 07:21:58;;;;;;;2.65;0.95;;;14.60;94.90;;;;;;5064553;28;20623;-66
2023/01/07 07:24:23;;;;;;;2.17;0.70;;;14.60;94.80;;;;;;5071700;28;20040;-66
2023/01/07 07:26:49;;;;;;;1.25;0.70;;;14.50;94.90;;;;;;5073479;28;20103;-65
2023/01/07 07:29:15;;;;;;;1.25;0.73;;;14.50;94.70;;;;;;5068008;28;20023;-67
2023/01/07 07:31:40;;;;;;;2.78;0.75;;;14.60;94.60;;;;;;5067803;28;20115;-66
2023/01/07 07:34:07;;;;;;;1.48;0.63;;;14.60;94.50;;;;;;5072144;28;20123;-65
2023/01/07 07:36:33;;;;;;;3.00;0.80;;;14.60;94.50;;;;;;5074631;28;20103;-68
2023/01/07 07:38:58;;;;;;;3.13;1.00;;;14.50;94.80;;;;;;5072234;28;20424;-66
2023/01/07 07:41:24;;;;;;;1.83;0.70;;;14.60;94.50;;;;;;5073143;28;20031;-66
2023/01/07 07:43:49;;;;;;;1.90;0.45;;;14.60;94.50;;;;;;5072364;28;20027;-66
2023/01/07 07:46:15;;;;;;;2.33;0.95;;;14.60;94.50;;;;;;5073799;28;20025;-66
2023/01/07 07:48:40;;;;;;;3.13;1.58;;;14.60;94.30;;;;;;5071908;28;20017;-68
2023/01/07 07:51:06;;;;;;;1.58;0.85;;;14.60;94.30;;;;;;5071265;28;20024;-66
2023/01/07 07:53:32;;;;;;;2.03;1.15;;;14.70;94.30;;;;;;5071492;28;20035;-65
2023/01/07 07:55:57;;;;;;;2.20;1.02;;;14.60;94.20;;;;;;5071374;28;20390;-63
2023/01/07 07:58:23;;;;;;;1.67;1.00;;;14.60;94.20;;;;;;5071228;28;20059;-64
2023/01/07 08:00:48;;;;;;;2.25;1.50;;;14.50;94.20;;;;;;5068333;28;20041;-65
2023/01/07 08:03:14;;;;;;;2.38;1.20;;;14.00;94.00;;;;;;5071508;28;20488;-65
2023/01/07 08:05:42;;;;;;;3.22;2.08;;;13.00;95.70;;;;;;5071495;28;20035;-65
2023/01/07 08:08:10;;;;;;;14.27;4.22;;;12.40;96.90;;;;;;5069343;28;20029;-68
2023/01/07 08:10:36;;;;;;;9.93;1.65;;;12.20;97.80;;;;;;5070658;28;20025;-66
2023/01/07 08:13:01;;;;;;;4.68;1.50;;;13.00;99.60;;;;;;5072452;28;20127;-66
2023/01/07 08:15:27;;;;;;;4.13;2.20;;;13.50;98.60;;;;;;5073503;28;20046;-67
2023/01/07 08:18:00;;;;;;;3.72;1.90;;;13.90;97.30;;;;;;5072340;28;20396;-66
2023/01/07 08:20:26;;;;;;;3.63;1.95;;;14.20;96.50;;;;;;5065139;28;20029;-67
2023/01/07 08:22:52;;;;;;;3.38;1.88;;;14.40;95.90;;;;;;5066047;28;20127;-66
2023/01/07 08:25:18;;;;;;;4.20;1.52;;;14.50;95.40;;;;;;5071463;28;20522;-66
2023/01/07 08:27:43;;;;;;;3.03;1.58;;;14.50;95.10;;;;;;5073044;28;20028;-66
2023/01/07 08:30:10;;;;;;;2.80;1.27;;;14.70;94.90;;;;;;5071432;28;20052;-66
2023/01/07 08:32:36;;;;;;;2.28;1.27;;;14.70;94.50;;;;;;5071373;28;20146;-66
2023/01/07 08:35:01;;;;;;;1.88;1.10;;;14.70;94.40;;;;;;5072737;28;20029;-66
2023/01/07 08:37:29;;;;;;;1.25;0.63;;;14.70;93.80;;;;;;5070730;28;20032;-66
2023/01/07 08:39:54;;;;;;;2.22;0.90;;;14.60;93.60;;;;;;5071929;28;20476;-66
2023/01/07 08:42:20;;;;;;;3.70;0.73;;;14.70;93.90;;;;;;5070516;28;20046;-65
2023/01/07 08:44:45;;;;;;;3.63;1.20;;;14.70;94.10;;;;;;5057867;28;20036;-66
2023/01/07 08:47:11;;;;;;;3.28;0.95;;;14.80;94.50;;;;;;5055766;28;20033;-65
2023/01/07 08:49:36;;;;;;;2.85;0.80;;;14.80;94.10;;;;;;5073059;28;20024;-67
2023/01/07 08:52:02;;;;;;;1.70;0.88;;;14.70;94.10;;;;;;5072612;28;20398;-65
2023/01/07 08:54:27;;;;;;;4.75;0.93;;;14.70;94.10;;;;;;5072566;28;20362;-66
2023/01/07 08:56:53;;;;;;;1.63;0.77;;;14.70;94.60;;;;;;5072185;28;20036;-66
2023/01/07 08:59:18;;;;;;;3.08;1.20;;;14.80;93.70;;;;;;5072499;28;20032;-67
2023/01/07 09:01:44;;;;;;;3.10;1.45;;;14.70;93.90;;;;;;5073262;28;20043;-65
2023/01/07 09:04:09;;;;;;;3.28;1.30;;;14.80;93.50;;;;;;5072536;28;20200;-66
2023/01/07 09:06:35;;;;;;;2.33;1.15;;;14.70;93.20;;;;;;5072335;28;20032;-66
2023/01/07 09:09:00;;;;;;;1.80;0.88;;;14.70;93.50;;;;;;5070755;28;20389;-66
2023/01/07 09:11:26;;;;;;;2.33;1.20;;;14.80;94.30;;;;;;5072589;28;20381;-66
2023/01/07 09:13:51;;;;;;;3.13;1.55;;;14.80;93.70;;;;;;5072497;28;20024;-66
2023/01/07 09:16:17;;;;;;;3.88;1.10;;;14.80;94.40;;;;;;5072384;28;20028;-66
2023/01/07 09:18:42;;;;;;;2.60;1.38;;;14.90;94.50;;;;;;5072035;28;20028;-65
2023/01/07 09:21:08;;;;;;;2.85;1.48;;;14.90;94.30;;;;;;5072421;28;20127;-65
2023/01/07 09:23:34;;;;;;;3.25;1.60;;;14.80;93.30;;;;;;5072338;28;20027;-66
2023/01/07 09:26:00;;;;;;;3.65;1.80;;;14.70;93.30;;;;;;5072153;28;20041;-65
2023/01/07 09:28:25;;;;;;;2.67;1.52;;;14.80;93.40;;;;;;5068980;28;20466;-66
2023/01/07 09:30:51;;;;;;;2.30;0.90;;;14.70;94.30;;;;;;5071362;28;20480;-66
2023/01/07 09:33:17;;;;;;;2.10;1.00;;;14.80;94.50;;;;;;5071842;28;20031;-64
2023/01/07 09:35:42;;;;;;;1.10;0.70;;;14.80;94.80;;;;;;5071260;28;20020;-66
2023/01/07 09:38:08;;;;;;;2.65;1.15;;;14.90;94.80;;;;;;5071132;28;20035;-65
2023/01/07 09:40:39;;;;;;;1.83;0.93;;;14.90;94.90;;;;;;5070831;28;20052;-65
2023/01/07 09:43:14;;;;;;;1.17;0.77;;;14.90;95.00;;;;;;5071725;28;20020;-66
2023/01/07 09:45:46;;;;;;;3.30;1.10;;;14.90;94.30;;;;;;5070831;28;20033;-65
2023/01/07 09:48:37;;;;;;;1.55;0.90;;;15.00;94.40;;;;;;5071114;28;20099;-65
2023/01/07 09:51:25;;;;;;;1.38;0.70;;;14.90;94.50;;;;;;5074485;28;20025;-67
2023/01/07 09:53:53;;;;;;;1.98;0.90;;;14.90;94.80;;;;;;5061468;28;20055;-65
2023/01/07 09:56:26;;;;;;;1.48;0.80;;;14.90;94.50;;;;;;5074827;28;20024;-66
2023/01/07 09:58:52;;;;;;;2.42;0.80;;;15.00;94.60;;;;;;5074476;28;20025;-66
2023/01/07 10:01:49;;;;;;;1.17;0.80;;;14.90;94.50;;;;;;5075553;28;20032;-68
2023/01/07 10:04:37;;;;;;;1.38;0.70;;;15.00;94.30;;;;;;5057496;28;20033;-70
2023/01/07 10:07:27;;;;;;;1.17;0.75;;;14.90;94.30;;;;;;5055428;28;20021;-66
2023/01/07 10:10:06;;;;;;;0.98;0.52;;;15.00;94.20;;;;;;5069492;28;20068;-65
2023/01/07 10:12:32;;;;;;;1.77;0.50;;;15.10;95.40;;;;;;5075508;28;20082;-67
2023/01/07 10:15:28;;;;;;;1.33;0.45;;;15.00;95.10;;;;;;5074775;28;20446;-67
2023/01/07 10:18:23;;;;;;;2.40;0.63;;;15.10;94.90;;;;;;5073856;28;20036;-69
2023/01/07 10:21:13;;;;;;;1.83;0.90;;;15.00;94.80;;;;;;5074532;28;20036;-66
2023/01/07 10:23:43;;;;;;;1.30;0.60;;;15.10;95.40;;;;;;5065783;28;20054;-67
2023/01/07 10:26:31;;;;;;;4.00;0.50;;;15.10;95.60;;;;;;5069440;28;20036;-65
2023/01/07 10:29:06;;;;;;;1.00;0.47;;;15.20;95.20;;;;;;5072244;28;20017;-67
2023/01/07 10:31:32;;;;;;;1.67;0.60;;;15.20;94.90;;;;;;5071758;28;20032;-66
2023/01/07 10:33:58;;;;;;;1.73;0.50;;;15.10;94.80;;;;;;5073046;28;20435;-65
2023/01/07 10:36:34;;;;;;;2.60;0.52;;;15.10;94.80;;;;;;5073588;28;20032;-65
2023/01/07 10:39:30;;;;;;;1.40;0.50;;;15.20;95.00;;;;;;5073719;28;20039;-66
2023/01/07 10:42:03;;;;;;;1.50;0.60;;;15.30;94.70;;;;;;5070206;28;20039;-67
2023/01/07 10:45:06;;;;;;;3.40;0.90;;;15.30;94.80;;;;;;5071134;28;20017;-65
2023/01/07 10:47:59;;;;;;;3.45;0.70;;;15.30;94.50;;;;;;5077602;28;20100;-65
2023/01/07 10:50:28;;;;;;;;;;;15.30;94.30;;;;;;5064541;28;20041;-65
2023/01/07 10:53:02;;;;;;;3.13;0.70;;;15.30;94.30;;;;;;5074114;28;19981;-65
2023/01/07 10:55:45;;;;;;;3.67;0.90;;;15.40;94.70;;;;;;5073590;28;20029;-65
2023/01/07 10:58:11;;;;;;;1.52;0.95;;;15.30;94.90;;;;;;5073062;28;20060;-66
2023/01/07 11:00:38;;;;;;;2.17;1.30;;;15.30;94.80;;;;;;5073786;28;20044;-65
2023/01/07 11:03:13;;;;;;;2.42;0.90;;;15.40;95.20;;;;;;5068239;28;20623;-66
2023/01/07 11:05:39;;;;;;;3.72;1.70;;;15.40;95.30;;;;;;5071827;28;20025;-65
2023/01/07 11:08:14;;;;;;;3.28;2.15;;;15.40;95.50;;;;;;5072833;28;20377;-67
2023/01/07 11:10:40;;;;;;;5.25;2.22;;;15.50;96.90;;;;;;5063055;28;20078;-66
2023/01/07 11:13:14;;;;;;;10.73;2.80;;;15.50;96.90;;;;;;5073630;28;20020;-66
2023/01/07 11:15:50;;;;;;;8.52;2.85;;;15.60;96.60;;;;;;5073266;28;20028;-67
2023/01/07 11:18:21;;;;;;;4.10;1.90;;;15.60;96.20;;;;;;5069996;28;20029;-64
2023/01/07 11:20:48;;;;;;;3.35;1.63;;;15.70;95.70;;;;;;5072463;28;20037;-65
2023/01/07 11:23:33;;;;;;;4.82;1.20;;;15.60;95.20;;;;;;5071929;28;20386;-66
2023/01/07 11:26:24;;;;;;;3.65;1.20;;;15.70;94.90;;;;;;5071558;28;20375;-66
2023/01/07 11:29:18;;;;;;;2.65;1.10;;;15.70;94.60;;;;;;5063564;28;20609;-67
2023/01/07 11:31:53;;;;;;;2.33;0.82;;;15.70;94.30;;;;;;5019661;28;20099;-67
2023/01/07 11:34:24;;;;;;;3.65;0.90;;;15.80;93.70;;;;;;5054726;28;20478;-65
2023/01/07 11:36:50;;;;;;;4.93;1.00;;;15.80;93.60;;;;;;5069988;28;20055;-66
2023/01/07 11:39:25;;;;;;;2.05;1.20;;;15.90;93.20;;;;;;5071626;28;20674;-65
2023/01/07 11:45:28;;;;;;;3.60;1.30;;;15.90;91.90;;;;;;5071816;28;20169;-65
2023/01/07 11:48:07;;;;;;;3.20;1.65;;;15.90;91.70;;;;;;5046465;28;20040;-65
2023/01/07 11:50:52;;;;;;;2.72;1.85;;;15.90;91.50;;;;;;5071377;28;20066;-65
2023/01/07 11:53:18;;;;;;;4.50;2.90;;;15.90;91.30;;;;;;5072493;28;20115;-63
2023/01/07 11:56:01;;;;;;;6.03;3.72;;;15.80;91.40;;;;;;5070670;28;20115;-67
2023/01/07 11:58:33;;;;;;;7.60;3.65;;;15.90;91.20;;;;;;5072056;28;20028;-66
2023/01/07 12:01:07;;;;;;;5.88;2.47;;;15.90;91.30;;;;;;5072086;28;20040;-65
2023/01/07 12:03:39;;;;;;;6.22;2.90;;;15.80;91.30;;;;;;5072797;28;20048;-65
2023/01/07 12:06:05;;;;;;;4.72;2.58;;;15.90;91.30;;;;;;5072833;28;20025;-64
2023/01/07 12:08:31;;;;;;;3.25;2.10;;;16.00;91.10;;;;;;5071331;28;20074;-65
2023/01/07 12:10:58;;;;;;;2.83;2.03;;;16.00;91.10;;;;;;5070966;28;20064;-64
2023/01/07 12:13:26;;;;;;;3.65;2.08;;;16.00;91.10;;;;;;5052947;28;20032;-66
2023/01/07 12:15:54;;;;;;;4.40;1.65;;;16.00;91.20;;;;;;5052781;28;20047;-66
2023/01/07 12:18:35;;;;;;;5.53;2.22;;;16.00;91.50;;;;;;5068004;28;20398;-65
2023/01/07 12:21:04;;;;;;;6.05;1.88;;;16.00;91.30;;;;;;5066503;28;20578;-65
2023/01/07 12:23:41;;;;;;;9.00;1.85;;;16.00;91.20;;;;;;5072345;28;20046;-65
2023/01/07 12:26:15;;;;;;;9.15;1.88;;;15.90;91.30;;;;;;5069744;28;20034;-67
2023/01/07 12:29:18;;;;;;;28.77;3.85;;;16.00;91.10;;;;;;5056402;28;20095;-68
2023/01/07 12:32:18;;;;;;;27.73;4.80;;;16.10;91.00;;;;;;5054680;28;20068;-69
2023/01/07 12:34:56;;;;;;;26.08;3.97;;;16.20;90.60;;;;;;5050924;28;20040;-69
2023/01/07 12:37:44;;;;;;;8.65;3.00;;;16.20;90.50;;;;;;5060823;28;20032;-67
2023/01/07 12:40:15;;;;;;;36.83;4.97;;;16.20;90.40;;;;;;5069612;28;20040;-66
2023/01/07 12:42:49;;;;;;;10.23;2.40;;;16.30;90.70;;;;;;5072286;28;20025;-68
2023/01/07 12:45:27;;;;;;;10.10;2.33;;;16.30;90.40;;;;;;5070674;28;20024;-68
2023/01/07 12:48:01;;;;;;;8.70;2.25;;;16.30;90.70;;;;;;5068271;28;20029;-72
2023/01/07 12:50:39;;;;;;;11.30;2.63;;;16.40;90.60;;;;;;5068102;28;20028;-71
2023/01/07 12:53:10;;;;;;;4.68;1.17;;;16.40;90.70;;;;;;5069164;28;20024;-66
2023/01/07 12:55:59;;;;;;;4.97;1.25;;;16.40;90.50;;;;;;5067549;28;20029;-71
2023/01/07 12:58:44;;;;;;;3.90;1.50;;;16.50;90.80;;;;;;5070207;28;20441;-67
2023/01/07 13:01:31;;;;;;;7.93;1.23;;;16.50;90.40;;;;;;5063960;28;20093;-74
2023/01/07 13:04:26;;;;;;;9.93;1.38;;;16.50;90.40;;;;;;5068278;28;20113;-71
2023/01/07 13:06:56;;;;;;;3.63;0.90;;;16.50;90.10;;;;;;5069671;28;20059;-69
2023/01/07 13:09:47;;;;;;;5.45;0.85;;;16.40;90.10;;;;;;5064987;28;20165;-69